Time;durP1;ratioP1;P1;durP2;ratioP2;P2;SDS_P1;SDS_P2;PMS_P1;PMS_P2;Temp;Humidity;BMP_temperature;BMP_pressure;BME280_temperature;BME280_humidity;BME280_pressure;Samples;Min_cycle;Max_cycle;Signal;HPM_P1;HPM_P2
2022/12/04 00:01:37;;;;;;;1999.90;999.90;;;2.60;99.90;;;;;;4974270;28;20094;-78
2022/12/04 00:04:02;;;;;;;1999.90;999.90;;;2.60;99.90;;;;;;4976073;28;20481;-78
2022/12/04 00:06:29;;;;;;;1999.90;999.90;;;2.60;99.90;;;;;;4974279;28;20043;-78
2022/12/04 00:08:55;;;;;;;1999.90;999.90;;;2.60;99.90;;;;;;4976057;28;20031;-78
2022/12/04 00:11:24;;;;;;;1999.90;999.90;;;2.60;99.90;;;;;;4975354;28;20063;-78
2022/12/04 00:13:49;;;;;;;1999.90;999.90;;;2.60;99.90;;;;;;4974084;28;20531;-78
2022/12/04 00:16:18;;;;;;;1999.90;999.90;;;2.60;99.90;;;;;;4975634;28;20039;-77
2022/12/04 00:18:44;;;;;;;1999.90;999.90;;;2.60;99.90;;;;;;4975812;28;20098;-77
2022/12/04 00:21:11;;;;;;;1999.90;999.90;;;2.60;99.90;;;;;;4975602;28;20132;-77
2022/12/04 00:23:37;;;;;;;1999.90;999.90;;;2.60;99.90;;;;;;4975565;28;20525;-77
2022/12/04 00:26:05;;;;;;;1999.90;999.90;;;2.60;99.90;;;;;;4974207;28;20043;-77
2022/12/04 00:28:32;;;;;;;1999.90;999.90;;;2.60;99.90;;;;;;4976260;28;20087;-78
2022/12/04 05:01:30;;;;;;;1999.90;999.90;;;3.10;99.90;;;;;;5472818;23;19926;-77
2022/12/04 05:03:56;;;;;;;1999.90;999.90;;;3.10;99.90;;;;;;4975367;28;20047;-77
2022/12/04 05:06:21;;;;;;;1999.90;999.90;;;3.10;99.90;;;;;;4975192;28;20118;-76
2022/12/04 05:08:48;;;;;;;1999.90;999.90;;;3.20;99.90;;;;;;4975200;28;20035;-76
2022/12/04 05:11:15;;;;;;;1999.90;999.90;;;3.10;99.90;;;;;;4974800;28;20066;-76
2022/12/04 05:13:41;;;;;;;1999.90;999.90;;;3.20;99.90;;;;;;4975737;28;20768;-76
2022/12/04 05:16:11;;;;;;;1999.90;999.90;;;3.10;99.90;;;;;;4974088;28;20504;-76
2022/12/04 05:18:37;;;;;;;1999.90;999.90;;;3.10;99.90;;;;;;4974313;28;20150;-76
2022/12/04 05:21:06;;;;;;;1999.90;999.90;;;3.10;99.90;;;;;;4978266;28;20035;-76
2022/12/04 05:23:32;;;;;;;1999.90;999.90;;;3.10;99.90;;;;;;4978384;28;20159;-77
2022/12/04 05:26:02;;;;;;;1999.90;999.90;;;3.10;99.90;;;;;;4978282;28;20163;-76
2022/12/04 05:28:28;;;;;;;1999.90;999.90;;;3.10;99.90;;;;;;4978273;28;20058;-76
2022/12/04 05:30:59;;;;;;;1999.90;999.90;;;3.20;99.90;;;;;;4976413;28;20151;-76
2022/12/04 05:33:24;;;;;;;1999.90;999.90;;;3.20;99.90;;;;;;4978089;28;20035;-76
2022/12/04 05:36:02;;;;;;;1999.90;999.90;;;3.20;99.90;;;;;;4976639;28;20035;-76
2022/12/04 05:38:28;;;;;;;1999.90;999.90;;;3.20;99.90;;;;;;4978444;28;20522;-76
2022/12/04 05:40:53;;;;;;;1999.90;999.90;;;3.10;99.90;;;;;;4977697;28;20045;-76
2022/12/04 05:43:19;;;;;;;1999.90;999.90;;;3.10;99.90;;;;;;4976520;28;20034;-76
2022/12/04 05:45:45;;;;;;;1999.90;999.90;;;3.10;99.90;;;;;;4977913;28;20071;-76
2022/12/04 05:48:10;;;;;;;1999.90;999.90;;;3.00;99.90;;;;;;4977813;28;20130;-76
2022/12/04 05:50:37;;;;;;;1999.90;999.90;;;3.10;99.90;;;;;;4977650;28;20444;-76
2022/12/04 05:53:03;;;;;;;1999.90;999.90;;;3.10;99.90;;;;;;4977878;28;20039;-76
2022/12/04 05:55:28;;;;;;;1999.90;999.90;;;3.10;99.90;;;;;;4978038;28;20485;-76
2022/12/04 05:57:54;;;;;;;1999.90;999.90;;;3.10;99.90;;;;;;4978006;28;20126;-75
2022/12/04 06:00:19;;;;;;;1999.90;999.90;;;3.10;99.90;;;;;;4976692;28;20110;-76
2022/12/04 06:02:45;;;;;;;1999.90;999.90;;;3.10;99.90;;;;;;4977933;28;20052;-76
2022/12/04 06:05:11;;;;;;;1999.90;999.90;;;3.10;99.90;;;;;;4977528;28;20580;-76
2022/12/04 06:07:36;;;;;;;1999.90;999.90;;;3.00;99.90;;;;;;4977352;28;20047;-76
2022/12/04 06:10:02;;;;;;;1999.90;999.90;;;3.10;99.90;;;;;;4977090;28;20041;-76
2022/12/04 06:12:29;;;;;;;1999.90;999.90;;;3.10;99.90;;;;;;4975943;28;20035;-76
2022/12/04 06:14:55;;;;;;;1999.90;999.90;;;3.00;99.90;;;;;;4977796;28;20032;-76
2022/12/04 06:17:20;;;;;;;1999.90;999.90;;;3.00;99.90;;;;;;4977330;28;20043;-76
2022/12/04 06:19:46;;;;;;;1999.90;999.90;;;3.00;99.90;;;;;;4977378;28;20437;-76
2022/12/04 06:22:11;;;;;;;1999.90;999.90;;;3.00;99.90;;;;;;4977208;28;20050;-76
2022/12/04 06:24:37;;;;;;;1999.90;999.90;;;3.00;99.90;;;;;;4977650;28;20038;-76
2022/12/04 06:27:03;;;;;;;1999.90;999.90;;;3.00;99.90;;;;;;4975930;28;20117;-76
2022/12/04 06:29:29;;;;;;;1999.90;999.90;;;3.00;99.90;;;;;;4977147;28;20032;-76
2022/12/04 06:31:54;;;;;;;1999.90;999.90;;;3.00;99.90;;;;;;4976808;28;20057;-76
2022/12/04 06:34:20;;;;;;;1999.90;999.90;;;3.00;99.90;;;;;;4975575;28;20058;-76
2022/12/04 06:36:45;;;;;;;1999.90;999.90;;;3.00;99.90;;;;;;4977351;28;20043;-76
2022/12/04 06:39:11;;;;;;;1999.90;999.90;;;3.00;99.90;;;;;;4977089;28;20397;-76
2022/12/04 06:41:37;;;;;;;1999.90;999.90;;;3.00;99.90;;;;;;4976930;28;20577;-76
2022/12/04 06:44:02;;;;;;;1999.90;999.90;;;3.00;99.90;;;;;;4977239;28;20036;-76
2022/12/04 06:46:30;;;;;;;1999.90;999.90;;;3.00;99.90;;;;;;4976842;28;20126;-76
2022/12/04 06:48:57;;;;;;;1999.90;999.90;;;3.00;99.90;;;;;;4977055;28;20041;-76
2022/12/04 06:51:34;;;;;;;1999.90;999.90;;;3.00;99.90;;;;;;4976633;28;20042;-76
2022/12/04 06:54:01;;;;;;;1999.90;999.90;;;3.00;99.90;;;;;;4976980;28;20042;-76
2022/12/04 06:56:30;;;;;;;1999.90;999.90;;;3.00;99.90;;;;;;4977049;28;20046;-76
2022/12/04 06:58:59;;;;;;;1999.90;999.90;;;3.00;99.90;;;;;;4975496;28;20456;-76
2022/12/04 07:01:28;;;;;;;1999.90;999.90;;;3.00;99.90;;;;;;4976082;28;20050;-76
2022/12/04 07:03:54;;;;;;;1999.90;999.90;;;3.00;99.90;;;;;;4977028;28;20098;-76
2022/12/04 07:06:28;;;;;;;1999.90;999.90;;;3.00;99.90;;;;;;4976583;28;20501;-76
2022/12/04 07:08:58;;;;;;;1999.90;999.90;;;3.00;99.90;;;;;;4976644;28;20070;-76
2022/12/04 07:11:27;;;;;;;1999.90;999.90;;;3.00;99.90;;;;;;4976234;28;20035;-76
2022/12/04 07:13:53;;;;;;;1999.90;999.90;;;3.10;99.90;;;;;;4976751;28;20118;-76
2022/12/04 07:16:20;;;;;;;1999.90;999.90;;;3.00;99.90;;;;;;4976778;28;20039;-76
2022/12/04 07:18:49;;;;;;;1999.90;999.90;;;3.10;99.90;;;;;;4976760;28;20055;-77
2022/12/04 07:21:17;;;;;;;1999.90;999.90;;;3.10;99.90;;;;;;4976435;28;20031;-76
2022/12/04 07:23:44;;;;;;;1999.90;999.90;;;3.10;99.90;;;;;;4976582;28;20031;-76
2022/12/04 07:26:12;;;;;;;1999.90;999.90;;;3.10;99.90;;;;;;4976347;28;20043;-76
2022/12/04 07:28:39;;;;;;;1999.90;999.90;;;3.20;99.90;;;;;;4959328;28;20606;-77
2022/12/04 07:31:06;;;;;;;1999.90;999.90;;;3.20;99.90;;;;;;4975721;28;20037;-77
2022/12/04 07:33:31;;;;;;;1999.90;999.90;;;3.20;99.90;;;;;;4976447;28;20066;-77
2022/12/04 07:35:58;;;;;;;1999.90;999.90;;;3.20;99.90;;;;;;4976468;28;20036;-77
2022/12/04 07:38:24;;;;;;;1999.90;999.90;;;3.20;99.90;;;;;;4976036;28;20583;-76
2022/12/04 07:40:50;;;;;;;1999.90;999.90;;;3.20;99.90;;;;;;4974231;28;20035;-77
2022/12/04 07:43:15;;;;;;;1999.90;999.90;;;3.20;99.90;;;;;;4975677;28;20039;-77
2022/12/04 07:45:41;;;;;;;1999.90;999.90;;;3.20;99.90;;;;;;4976393;28;20042;-77
2022/12/04 07:48:06;;;;;;;1999.90;999.90;;;3.20;99.90;;;;;;4976330;28;20039;-77
2022/12/04 07:50:32;;;;;;;1999.90;999.90;;;3.20;99.90;;;;;;4976382;28;20441;-77
2022/12/04 07:52:57;;;;;;;1999.90;999.90;;;3.20;99.90;;;;;;4976064;28;20039;-77
2022/12/04 07:55:23;;;;;;;1999.90;999.90;;;3.20;99.90;;;;;;4974499;28;20428;-77
2022/12/04 07:57:49;;;;;;;1999.90;999.90;;;3.20;99.90;;;;;;4975830;28;20035;-77
2022/12/04 08:00:14;;;;;;;1999.90;999.90;;;3.20;99.90;;;;;;4975337;28;20039;-77
2022/12/04 08:02:40;;;;;;;1999.90;999.90;;;3.20;99.90;;;;;;4981924;28;20045;-77
2022/12/04 08:05:06;;;;;;;1999.90;999.90;;;3.20;99.90;;;;;;4982371;28;20031;-79
2022/12/04 08:07:32;;;;;;;1999.90;999.90;;;3.30;99.90;;;;;;4987205;28;20043;-80
2022/12/04 08:09:58;;;;;;;1999.90;999.90;;;3.20;99.90;;;;;;4981188;28;20035;-78
2022/12/04 08:12:23;;;;;;;1999.90;999.90;;;3.30;99.90;;;;;;4978980;28;20031;-78
2022/12/04 08:14:49;;;;;;;1999.90;999.90;;;3.20;99.90;;;;;;4979614;28;20039;-78
2022/12/04 08:17:15;;;;;;;1999.90;999.90;;;3.20;99.90;;;;;;4979479;28;20494;-81
2022/12/04 08:19:40;;;;;;;1999.90;999.90;;;3.30;99.90;;;;;;4979030;28;20038;-80
2022/12/04 08:22:06;;;;;;;1999.90;999.90;;;3.30;99.90;;;;;;4981127;28;20039;-78
2022/12/04 08:24:31;;;;;;;1999.90;999.90;;;3.30;99.90;;;;;;4979699;28;20067;-78
2022/12/04 08:26:57;;;;;;;1999.90;999.90;;;3.40;99.90;;;;;;4980623;28;20040;-78
2022/12/04 08:29:23;;;;;;;1999.90;999.90;;;3.40;99.90;;;;;;4977903;28;20051;-76
2022/12/04 08:31:48;;;;;;;1999.90;999.90;;;3.40;99.90;;;;;;4977688;28;20050;-79
2022/12/04 08:34:14;;;;;;;1999.90;999.90;;;3.40;99.90;;;;;;4979366;28;20031;-79
2022/12/04 08:36:40;;;;;;;1999.90;999.90;;;3.40;99.90;;;;;;4975598;28;20386;-78
2022/12/04 08:39:05;;;;;;;1999.90;999.90;;;3.50;99.90;;;;;;4976069;28;20032;-77
2022/12/04 08:41:31;;;;;;;1999.90;999.90;;;3.50;99.90;;;;;;4974474;28;20035;-77
2022/12/04 08:43:57;;;;;;;1999.90;999.90;;;3.50;99.90;;;;;;4976373;28;20039;-78
2022/12/04 08:46:25;;;;;;;1999.90;999.90;;;3.50;99.90;;;;;;4974458;28;20397;-77
2022/12/04 08:48:51;;;;;;;1999.90;999.90;;;3.60;99.90;;;;;;4975450;28;20086;-78
2022/12/04 08:51:20;;;;;;;1999.90;999.90;;;3.70;99.90;;;;;;4974001;28;20035;-75
2022/12/04 08:53:46;;;;;;;1999.90;999.90;;;3.70;99.90;;;;;;4975367;28;20039;-79
2022/12/04 08:56:12;;;;;;;1999.90;999.90;;;3.70;99.90;;;;;;4977836;28;20508;-77
2022/12/04 08:58:37;;;;;;;1999.90;999.90;;;3.80;99.90;;;;;;4978820;28;20138;-78
2022/12/04 09:01:11;;;;;;;1999.90;999.90;;;3.80;99.90;;;;;;4977634;28;20035;-77
2022/12/04 09:03:37;;;;;;;1999.90;999.90;;;3.90;99.90;;;;;;4979576;28;20050;-77
2022/12/04 09:06:04;;;;;;;1999.90;999.90;;;3.90;99.90;;;;;;4978228;28;20031;-80
2022/12/04 09:08:30;;;;;;;1999.90;999.90;;;3.90;99.90;;;;;;4977944;28;20122;-77
2022/12/04 09:11:03;;;;;;;1999.90;999.90;;;3.90;99.90;;;;;;4977829;28;20031;-78
2022/12/04 09:13:29;;;;;;;1999.90;999.90;;;4.00;99.90;;;;;;4979223;28;20063;-77
2022/12/04 09:15:54;;;;;;;1999.90;999.90;;;4.00;99.90;;;;;;4978713;28;20055;-77
2022/12/04 09:18:20;;;;;;;1999.90;999.90;;;4.00;99.90;;;;;;4978389;28;20485;-80
2022/12/04 09:20:57;;;;;;;1999.90;999.90;;;4.00;99.90;;;;;;4979168;28;20049;-80
2022/12/04 09:23:24;;;;;;;1999.90;999.90;;;4.00;99.90;;;;;;4979301;28;20063;-79
2022/12/04 09:25:49;;;;;;;1999.90;999.90;;;4.00;99.90;;;;;;4979930;28;20028;-77
2022/12/04 09:28:15;;;;;;;1999.90;999.90;;;4.00;99.90;;;;;;4972931;28;20036;-79
2022/12/04 09:30:40;;;;;;;1999.90;999.90;;;3.90;99.90;;;;;;4958092;28;20032;-77
2022/12/04 09:33:06;;;;;;;1999.90;999.90;;;3.90;99.90;;;;;;4958879;28;20050;-78
2022/12/04 09:35:32;;;;;;;1999.90;999.90;;;3.90;99.90;;;;;;4957759;28;20031;-77
2022/12/04 09:37:58;;;;;;;1999.90;999.90;;;4.00;99.90;;;;;;4959434;28;20043;-77
2022/12/04 09:40:32;;;;;;;1999.90;999.90;;;4.00;99.90;;;;;;4956718;28;20512;-77
2022/12/04 09:43:20;;;;;;;1999.90;999.90;;;4.10;99.90;;;;;;4958791;28;20040;-78
2022/12/04 09:45:50;;;;;;;1999.90;999.90;;;4.10;99.90;;;;;;4960052;28;20032;-78
2022/12/04 09:48:18;;;;;;;1999.90;999.90;;;4.10;99.90;;;;;;4959349;28;20047;-78
2022/12/04 09:50:46;;;;;;;1999.90;999.90;;;4.10;99.90;;;;;;4957352;28;20102;-77
2022/12/04 09:53:19;;;;;;;1999.90;999.90;;;4.10;99.90;;;;;;4961102;28;20069;-78
2022/12/04 09:55:53;;;;;;;1999.90;999.90;;;4.00;99.90;;;;;;4973875;28;20045;-79
2022/12/04 09:58:22;;;;;;;1999.90;999.90;;;4.00;99.90;;;;;;4977626;28;20082;-79
2022/12/04 10:00:51;;;;;;;1999.90;999.90;;;4.10;99.90;;;;;;4978366;28;20035;-78
2022/12/04 10:03:19;;;;;;;1999.90;999.90;;;4.10;99.90;;;;;;4978875;28;20114;-79
2022/12/04 10:06:10;;;;;;;1999.90;999.90;;;4.10;99.90;;;;;;4979430;28;20038;-79
2022/12/04 10:08:53;;;;;;;1999.90;999.90;;;4.10;99.90;;;;;;4978793;28;20035;-79
2022/12/04 10:11:24;;;;;;;1999.90;999.90;;;4.10;99.90;;;;;;4979722;28;20031;-77
2022/12/04 10:14:23;;;;;;;1999.90;999.90;;;4.10;99.90;;;;;;4976423;28;20039;-76
2022/12/04 10:17:01;;;;;;;1999.90;999.90;;;4.20;99.90;;;;;;4974528;28;20039;-77
2022/12/04 10:19:52;;;;;;;1999.90;999.90;;;4.20;99.90;;;;;;4978200;28;20042;-77
2022/12/04 10:22:23;;;;;;;1999.90;999.90;;;4.30;99.90;;;;;;4978293;28;20065;-77
2022/12/04 10:24:56;;;;;;;1999.90;999.90;;;4.40;99.90;;;;;;4977925;28;20383;-76
2022/12/04 10:27:29;;;;;;;1999.90;999.90;;;4.40;99.90;;;;;;4978051;28;20046;-77
2022/12/04 10:29:59;;;;;;;1999.90;999.90;;;4.40;99.90;;;;;;4977045;28;20505;-76
2022/12/04 10:32:33;;;;;;;1999.90;999.90;;;4.40;99.90;;;;;;4977994;28;20035;-78
2022/12/04 10:35:15;;;;;;;1999.90;999.90;;;4.40;99.90;;;;;;4979816;28;20067;-76
2022/12/04 10:37:42;;;;;;;1999.90;999.90;;;4.40;99.90;;;;;;4977534;28;20031;-78
2022/12/04 10:40:19;;;;;;;1999.90;999.90;;;4.50;99.90;;;;;;4977275;28;20031;-75
2022/12/04 10:42:59;;;;;;;1999.90;999.90;;;4.50;99.90;;;;;;4984207;28;20031;-80
2022/12/04 10:45:25;;;;;;;1999.90;999.90;;;4.50;99.90;;;;;;4975434;28;20493;-78
2022/12/04 10:47:52;;;;;;;1999.90;999.90;;;4.50;99.90;;;;;;4977683;28;20046;-77
2022/12/04 10:50:20;;;;;;;1999.90;999.90;;;4.50;99.90;;;;;;4977409;28;20505;-78
2022/12/04 10:52:46;;;;;;;1999.90;999.90;;;4.50;99.90;;;;;;4976902;28;20074;-77
2022/12/04 10:55:12;;;;;;;1999.90;999.90;;;4.50;99.90;;;;;;4975409;28;20114;-77
2022/12/04 10:57:44;;;;;;;1999.90;999.90;;;4.40;99.90;;;;;;4976687;28;20047;-77
2022/12/04 11:00:33;;;;;;;1999.90;999.90;;;4.50;99.90;;;;;;4976767;28;20034;-76
2022/12/04 11:03:09;;;;;;;1999.90;999.90;;;4.50;99.90;;;;;;4976825;28;20041;-76
2022/12/04 11:05:42;;;;;;;1999.90;999.90;;;4.50;99.90;;;;;;4976794;28;20155;-76
2022/12/04 11:08:23;;;;;;;1999.90;999.90;;;4.50;99.90;;;;;;4976907;28;20868;-80
2022/12/04 11:10:59;;;;;;;1999.90;999.90;;;4.50;99.90;;;;;;4976890;28;20038;-74
2022/12/04 11:13:25;;;;;;;1999.90;999.90;;;4.50;99.90;;;;;;4976739;28;20038;-75
2022/12/04 11:15:53;;;;;;;1999.90;999.90;;;4.60;99.90;;;;;;4997896;23;20055;-77
2022/12/04 11:18:47;;;;;;;1999.90;999.90;;;4.60;99.90;;;;;;4991240;28;20527;-77
2022/12/04 11:21:17;;;;;;;1999.90;999.90;;;4.50;99.90;;;;;;4998203;28;20038;-78
2022/12/04 11:23:51;;;;;;;1999.90;999.90;;;4.50;99.90;;;;;;4991499;28;20504;-77
2022/12/04 11:26:35;;;;;;;1999.90;999.90;;;4.50;99.90;;;;;;4995708;28;20042;-77
2022/12/04 11:29:02;;;;;;;1999.90;999.90;;;4.60;99.90;;;;;;4996709;28;20039;-78
2022/12/04 11:31:29;;;;;;;1999.90;999.90;;;4.50;99.90;;;;;;4997298;28;20082;-78
2022/12/04 11:33:58;;;;;;;1999.90;999.90;;;4.50;99.90;;;;;;5003258;28;20473;-78
2022/12/04 11:36:30;;;;;;;1999.90;999.90;;;4.60;99.90;;;;;;4999277;28;20110;-78
2022/12/04 11:39:11;;;;;;;1999.90;999.90;;;4.60;99.90;;;;;;4997923;28;20037;-76
2022/12/04 11:41:37;;;;;;;1999.90;999.90;;;4.60;99.90;;;;;;4995068;28;20038;-77
2022/12/04 11:44:06;;;;;;;1999.90;999.90;;;4.60;99.90;;;;;;4993864;28;20035;-78
2022/12/04 11:46:33;;;;;;;1999.90;999.90;;;4.60;99.90;;;;;;4995214;28;20815;-77
2022/12/04 11:48:59;;;;;;;1999.90;999.90;;;4.60;99.90;;;;;;4995487;28;20035;-76
2022/12/04 11:51:44;;;;;;;1999.90;999.90;;;4.70;99.90;;;;;;4995548;28;20771;-80
2022/12/04 11:54:38;;;;;;;1999.90;999.90;;;4.60;99.90;;;;;;4994337;28;20477;-77
2022/12/04 11:57:46;;;;;;;1999.90;999.90;;;4.60;99.90;;;;;;4996251;28;20030;-79
2022/12/04 12:00:16;;;;;;;1999.90;999.90;;;4.70;99.90;;;;;;4995229;28;20113;-77
2022/12/04 12:03:15;;;;;;;1999.90;999.90;;;4.60;99.90;;;;;;5003064;28;20030;-78
2022/12/04 12:06:05;;;;;;;1999.90;999.90;;;4.60;99.90;;;;;;5016213;28;20123;-78
2022/12/04 12:08:34;;;;;;;1999.90;999.90;;;4.70;99.90;;;;;;5018181;28;20042;-79
2022/12/04 12:11:36;;;;;;;1999.90;999.90;;;4.70;99.90;;;;;;4993705;28;20031;-78
2022/12/04 12:14:20;;;;;;;1999.90;999.90;;;4.70;99.90;;;;;;4977982;28;20039;-78
2022/12/04 12:17:08;;;;;;;1999.90;999.90;;;4.80;99.90;;;;;;4976707;28;20086;-78
2022/12/04 12:19:39;;;;;;;1999.90;999.90;;;4.70;99.90;;;;;;4976262;28;20035;-78
2022/12/04 12:22:24;;;;;;;1999.90;999.90;;;4.70;99.90;;;;;;4978088;28;21038;-79
2022/12/04 12:25:17;;;;;;;1999.90;999.90;;;4.60;99.90;;;;;;4976745;28;20032;-78
2022/12/04 12:27:57;;;;;;;1999.90;999.90;;;4.60;99.90;;;;;;4975537;28;20067;-83
2022/12/04 12:30:25;;;;;;;1999.90;999.90;;;4.60;99.90;;;;;;4977692;28;20047;-78
2022/12/04 12:33:13;;;;;;;1999.90;999.90;;;4.60;99.90;;;;;;4977694;28;20035;-78
2022/12/04 12:35:51;;;;;;;1999.90;999.90;;;4.60;99.90;;;;;;4979253;28;20074;-78
2022/12/04 12:38:19;;;;;;;1999.90;999.90;;;4.60;99.90;;;;;;4976937;28;20038;-82
2022/12/04 12:40:55;;;;;;;1999.90;999.90;;;4.50;99.90;;;;;;4976317;28;20045;-78
2022/12/04 12:43:34;;;;;;;1999.90;999.90;;;4.50;99.90;;;;;;4978542;28;20043;-79
2022/12/04 12:46:47;;;;;;;1999.90;999.90;;;4.50;99.90;;;;;;4977020;28;20051;-78
2022/12/04 12:49:19;;;;;;;1999.90;999.90;;;4.50;99.90;;;;;;4976975;28;20079;-78
2022/12/04 12:52:13;;;;;;;1999.90;999.90;;;4.50;99.90;;;;;;4977053;28;20054;-77
2022/12/04 12:54:42;;;;;;;1999.90;999.90;;;4.50;99.90;;;;;;4978928;28;20106;-78
2022/12/04 12:57:23;;;;;;;1999.90;999.90;;;4.50;99.90;;;;;;4981143;28;20107;-79
2022/12/04 12:59:53;;;;;;;1999.90;999.90;;;4.60;99.90;;;;;;4979486;28;20431;-78
2022/12/04 13:02:29;;;;;;;1999.90;999.90;;;4.60;99.90;;;;;;4982510;28;20091;-78
2022/12/04 13:04:59;;;;;;;1999.90;999.90;;;4.60;99.90;;;;;;4997248;28;20043;-78
2022/12/04 13:07:39;;;;;;;1999.90;999.90;;;4.60;99.90;;;;;;4986056;28;20119;-78
2022/12/04 13:10:17;;;;;;;1999.90;999.90;;;4.60;99.90;;;;;;4980329;28;20772;-78
2022/12/04 13:13:14;;;;;;;1999.90;999.90;;;4.60;99.90;;;;;;4981631;28;20055;-78
2022/12/04 13:15:48;;;;;;;1999.90;999.90;;;4.60;99.90;;;;;;4982260;28;20042;-78
2022/12/04 13:18:46;;;;;;;1999.90;999.90;;;4.60;99.90;;;;;;4979628;28;20114;-78
2022/12/04 13:21:25;;;;;;;1999.90;999.90;;;4.60;99.90;;;;;;4974595;28;20571;-77
2022/12/04 13:23:50;;;;;;;1999.90;999.90;;;4.60;99.90;;;;;;4973757;28;20039;-77
2022/12/04 13:26:32;;;;;;;1999.90;999.90;;;4.60;99.90;;;;;;4975059;28;20485;-77
2022/12/04 13:29:40;;;;;;;1999.90;999.90;;;4.60;99.90;;;;;;4974050;28;20039;-78
2022/12/04 13:32:42;;;;;;;1999.90;999.90;;;4.60;99.90;;;;;;4976867;28;20761;-79
2022/12/04 13:35:37;;;;;;;1999.90;999.90;;;4.60;99.90;;;;;;4959808;28;20115;-78
2022/12/04 13:38:39;;;;;;;1999.90;999.90;;;4.60;99.90;;;;;;4975786;28;20110;-78
2022/12/04 13:41:09;;;;;;;1999.90;999.90;;;4.60;99.90;;;;;;4976547;28;20062;-79
2022/12/04 13:43:43;;;;;;;1999.90;999.90;;;4.50;99.90;;;;;;4978390;28;20031;-79
2022/12/04 13:46:38;;;;;;;1999.90;999.90;;;4.50;99.90;;;;;;4978535;28;20039;-79
2022/12/04 13:49:24;;;;;;;1999.90;999.90;;;4.50;99.90;;;;;;4977268;28;20050;-79
2022/12/04 13:51:51;;;;;;;1999.90;999.90;;;4.50;99.90;;;;;;4978819;28;20027;-78
2022/12/04 13:54:21;;;;;;;1999.90;999.90;;;4.50;99.90;;;;;;4977949;28;20486;-78
2022/12/04 13:56:52;;;;;;;1999.90;999.90;;;4.50;99.90;;;;;;4978423;28;20031;-78
2022/12/04 13:59:29;;;;;;;1999.90;999.90;;;4.50;99.90;;;;;;4977848;28;20114;-76
2022/12/04 14:01:57;;;;;;;1999.90;999.90;;;4.50;99.90;;;;;;4977890;28;20031;-76
2022/12/04 14:04:31;;;;;;;1999.90;999.90;;;4.40;99.90;;;;;;4977510;28;20039;-76
2022/12/04 14:07:00;;;;;;;1999.90;999.90;;;4.40;99.90;;;;;;4977579;28;20039;-76
2022/12/04 14:09:52;;;;;;;1999.90;999.90;;;4.40;99.90;;;;;;4980363;28;20043;-76
2022/12/04 14:12:23;;;;;;;1999.90;999.90;;;4.40;99.90;;;;;;4978182;28;20172;-76
2022/12/04 14:14:58;;;;;;;1999.90;999.90;;;4.40;99.90;;;;;;4976113;28;20039;-76
2022/12/04 14:17:35;;;;;;;1999.90;999.90;;;4.30;99.90;;;;;;4986070;28;20065;-77
2022/12/04 14:20:06;;;;;;;1999.90;999.90;;;4.40;99.90;;;;;;4981868;28;20098;-76
2022/12/04 14:22:35;;;;;;;1999.90;999.90;;;4.30;99.90;;;;;;4980377;28;20031;-77
2022/12/04 14:25:11;;;;;;;1999.90;999.90;;;4.30;99.90;;;;;;4980862;28;20033;-76
2022/12/04 14:27:44;;;;;;;1999.90;999.90;;;4.20;99.90;;;;;;4977579;28;20130;-76
2022/12/04 14:30:35;;;;;;;1999.90;999.90;;;4.20;99.90;;;;;;4978850;28;20031;-77
2022/12/04 14:33:12;;;;;;;1999.90;999.90;;;4.10;99.90;;;;;;4977566;28;20110;-76
2022/12/04 14:36:04;;;;;;;1999.90;999.90;;;4.10;99.90;;;;;;4976822;28;20122;-76
2022/12/04 14:38:31;;;;;;;1999.90;999.90;;;4.10;99.90;;;;;;4975734;28;20043;-76
2022/12/04 14:40:57;;;;;;;1999.90;999.90;;;4.00;99.90;;;;;;4976729;28;20556;-76
2022/12/04 14:43:27;;;;;;;1999.90;999.90;;;4.10;99.90;;;;;;4978033;28;20035;-76
2022/12/04 14:45:59;;;;;;;1999.90;999.90;;;4.10;99.90;;;;;;4977368;28;20031;-78
2022/12/04 14:48:32;;;;;;;1999.90;999.90;;;4.10;99.90;;;;;;4978238;28;20039;-76
2022/12/04 14:51:09;;;;;;;1999.90;999.90;;;4.00;99.90;;;;;;4978536;28;20028;-76
2022/12/04 14:53:56;;;;;;;1999.90;999.90;;;4.10;99.90;;;;;;4979103;28;20047;-78
2022/12/04 14:56:54;;;;;;;1999.90;999.90;;;4.00;99.90;;;;;;4978961;28;20031;-78
2022/12/04 14:59:23;;;;;;;1999.90;999.90;;;4.10;99.90;;;;;;4977513;28;20039;-78
2022/12/04 15:01:52;;;;;;;1999.90;999.90;;;4.10;99.90;;;;;;4977483;28;20067;-78
2022/12/04 15:04:25;;;;;;;1999.90;999.90;;;4.10;99.90;;;;;;4977408;28;20085;-79
2022/12/04 15:06:52;;;;;;;1999.90;999.90;;;4.10;99.90;;;;;;4979214;28;20067;-78
2022/12/04 15:12:33;;;;;;;1999.90;999.90;;;4.10;99.90;;;;;;4978633;28;20075;-78
2022/12/04 15:15:28;;;;;;;1999.90;999.90;;;4.10;99.90;;;;;;4977251;28;20035;-76
2022/12/04 15:17:57;;;;;;;1999.90;999.90;;;4.10;99.90;;;;;;4978306;28;20086;-75
2022/12/04 15:20:23;;;;;;;1999.90;999.90;;;4.20;99.90;;;;;;4977665;28;20039;-76
2022/12/04 15:22:49;;;;;;;1999.90;999.90;;;4.20;99.90;;;;;;4977607;28;20038;-77
2022/12/04 15:25:27;;;;;;;1999.90;999.90;;;4.10;99.90;;;;;;4978927;28;20035;-80
2022/12/04 15:28:01;;;;;;;1999.90;999.90;;;4.10;99.90;;;;;;4978002;28;20039;-77
2022/12/04 15:30:29;;;;;;;1999.90;999.90;;;4.10;99.90;;;;;;4977652;28;20084;-77
2022/12/04 15:32:55;;;;;;;1999.90;999.90;;;4.10;99.90;;;;;;4977602;28;20032;-75
2022/12/04 15:35:32;;;;;;;1999.90;999.90;;;4.20;99.90;;;;;;4975978;28;20038;-74
2022/12/04 15:37:58;;;;;;;1999.90;999.90;;;4.10;99.90;;;;;;4983928;28;20035;-74
2022/12/04 15:40:27;;;;;;;1999.90;999.90;;;4.10;99.90;;;;;;4995269;28;20109;-74
2022/12/04 15:42:53;;;;;;;1999.90;999.90;;;4.10;99.90;;;;;;4992279;28;20101;-75
2022/12/04 15:45:19;;;;;;;1999.90;999.90;;;4.00;99.90;;;;;;4986432;28;20099;-74
2022/12/04 15:47:44;;;;;;;1999.90;999.90;;;4.10;99.90;;;;;;4977056;28;20462;-76
2022/12/04 15:50:14;;;;;;;1999.90;999.90;;;4.10;99.90;;;;;;4975253;28;20140;-75
2022/12/04 15:52:58;;;;;;;1999.90;999.90;;;4.10;99.90;;;;;;4988407;28;20039;-75
2022/12/04 15:55:25;;;;;;;1999.90;999.90;;;4.10;99.90;;;;;;4987636;28;20258;-77
2022/12/04 15:57:56;;;;;;;1999.90;999.90;;;4.10;99.90;;;;;;4990678;28;20049;-77
2022/12/04 16:00:29;;;;;;;1999.90;999.90;;;4.10;99.90;;;;;;4994629;28;20039;-77
2022/12/04 16:02:56;;;;;;;1999.90;999.90;;;4.10;99.90;;;;;;4995232;28;20039;-76
2022/12/04 16:05:27;;;;;;;1999.90;999.90;;;4.10;99.90;;;;;;4995328;28;20058;-77
2022/12/04 16:07:55;;;;;;;1999.90;999.90;;;4.10;99.90;;;;;;4994853;28;20035;-73
2022/12/04 16:10:24;;;;;;;1999.90;999.90;;;4.10;99.90;;;;;;4974787;28;20043;-74
2022/12/04 16:12:59;;;;;;;1999.90;999.90;;;4.10;99.90;;;;;;4996408;28;20047;-73
2022/12/04 16:15:32;;;;;;;1999.90;999.90;;;4.00;99.90;;;;;;5007523;28;20035;-74
2022/12/04 16:17:58;;;;;;;1999.90;999.90;;;4.10;99.90;;;;;;4998710;28;20123;-76
2022/12/04 16:20:23;;;;;;;1999.90;999.90;;;4.10;99.90;;;;;;4980808;28;20126;-73
2022/12/04 16:22:52;;;;;;;1999.90;999.90;;;4.10;99.90;;;;;;4980796;28;20560;-75
2022/12/04 16:25:18;;;;;;;1999.90;999.90;;;4.10;99.90;;;;;;4984459;28;20062;-75
2022/12/04 16:27:43;;;;;;;1999.90;999.90;;;4.10;99.90;;;;;;4992469;28;20129;-75
2022/12/04 16:30:12;;;;;;;1999.90;999.90;;;4.10;99.90;;;;;;4991591;28;20167;-74
2022/12/04 16:32:37;;;;;;;1999.90;999.90;;;4.10;99.90;;;;;;4993347;28;20039;-79
2022/12/04 16:35:03;;;;;;;1999.90;999.90;;;4.00;99.90;;;;;;4986748;28;20418;-77
2022/12/04 16:37:30;;;;;;;1999.90;999.90;;;4.00;99.90;;;;;;4984306;28;20050;-77
2022/12/04 16:39:56;;;;;;;1999.90;999.90;;;4.00;99.90;;;;;;4980438;28;20119;-73
2022/12/04 16:42:25;;;;;;;1999.90;999.90;;;4.00;99.90;;;;;;4979564;28;20051;-75
2022/12/04 16:44:51;;;;;;;1999.90;999.90;;;4.00;99.90;;;;;;4975475;28;20086;-74
2022/12/04 16:47:17;;;;;;;1999.90;999.90;;;4.00;99.90;;;;;;4983827;28;20477;-74
2022/12/04 16:49:46;;;;;;;1999.90;999.90;;;4.10;99.90;;;;;;4983277;28;20040;-76
2022/12/04 16:52:11;;;;;;;1999.90;999.90;;;4.00;99.90;;;;;;4989438;28;20504;-74
2022/12/04 16:54:38;;;;;;;1999.90;999.90;;;4.00;99.90;;;;;;4983624;28;20122;-77
2022/12/04 16:57:04;;;;;;;1999.90;999.90;;;4.00;99.90;;;;;;4982660;28;20030;-77
2022/12/04 16:59:30;;;;;;;1999.90;999.90;;;3.90;99.90;;;;;;4985721;28;20055;-77
2022/12/04 17:01:55;;;;;;;1999.90;999.90;;;4.00;99.90;;;;;;4985640;28;20043;-73
2022/12/04 17:04:21;;;;;;;1999.90;999.90;;;4.00;99.90;;;;;;4992658;28;20035;-77